sensor_id;sensor_type;location;lat;lon;timestamp;pressure;altitude;pressure_sealevel;temperature;humidity
10940;BME280;5522;42.696;23.494;2024-03-25T00:00:08;53674.91;;;-139.68;100.00
10940;BME280;5522;42.696;23.494;2024-03-25T00:02:37;53642.72;;;-139.68;100.00
10940;BME280;5522;42.696;23.494;2024-03-25T00:05:04;53616.59;;;-139.68;100.00
10940;BME280;5522;42.696;23.494;2024-03-25T00:07:32;53616.59;;;-139.68;100.00
10940;BME280;5522;42.696;23.494;2024-03-25T00:09:58;53630.66;;;-139.68;100.00
10940;BME280;5522;42.696;23.494;2024-03-25T00:12:25;53682.94;;;-139.68;100.00
10940;BME280;5522;42.696;23.494;2024-03-25T00:14:51;53632.69;;;-139.68;100.00
10940;BME280;5522;42.696;23.494;2024-03-25T00:17:19;53690.97;;;-139.68;100.00
10940;BME280;5522;42.696;23.494;2024-03-25T00:19:46;53666.84;;;-139.68;100.00
10940;BME280;5522;42.696;23.494;2024-03-25T00:22:16;53650.78;;;-139.68;100.00
10940;BME280;5522;42.696;23.494;2024-03-25T00:24:42;53644.75;;;-139.68;100.00
10940;BME280;5522;42.696;23.494;2024-03-25T00:27:09;53686.97;;;-139.68;100.00
10940;BME280;5522;42.696;23.494;2024-03-25T00:29:35;53646.75;;;-139.68;100.00
10940;BME280;5522;42.696;23.494;2024-03-25T00:32:02;53640.72;;;-139.68;100.00
10940;BME280;5522;42.696;23.494;2024-03-25T00:34:27;53682.94;;;-139.68;100.00
10940;BME280;5522;42.696;23.494;2024-03-25T00:36:56;53608.56;;;-139.68;100.00
10940;BME280;5522;42.696;23.494;2024-03-25T00:39:21;53648.75;;;-139.68;100.00
10940;BME280;5522;42.696;23.494;2024-03-25T00:41:48;53646.75;;;-139.68;100.00
10940;BME280;5522;42.696;23.494;2024-03-25T00:44:15;53668.88;;;-139.68;100.00
10940;BME280;5522;42.696;23.494;2024-03-25T00:46:41;53658.81;;;-139.68;100.00
10940;BME280;5522;42.696;23.494;2024-03-25T00:49:07;53596.50;;;-139.68;100.00
10940;BME280;5522;42.696;23.494;2024-03-25T00:51:34;53654.78;;;-139.68;100.00
10940;BME280;5522;42.696;23.494;2024-03-25T00:54:01;53628.66;;;-139.68;100.00
10940;BME280;5522;42.696;23.494;2024-03-25T00:56:28;53634.69;;;-139.68;100.00
10940;BME280;5522;42.696;23.494;2024-03-25T00:58:54;53616.59;;;-139.68;100.00
10940;BME280;5522;42.696;23.494;2024-03-25T01:06:51;53650.78;;;-139.68;100.00
10940;BME280;5522;42.696;23.494;2024-03-25T01:09:19;53606.56;;;-139.68;100.00
10940;BME280;5522;42.696;23.494;2024-03-25T01:11:47;53642.72;;;-139.68;100.00
10940;BME280;5522;42.696;23.494;2024-03-25T01:14:14;53640.72;;;-139.68;100.00
10940;BME280;5522;42.696;23.494;2024-03-25T01:16:39;53628.66;;;-139.68;100.00
10940;BME280;5522;42.696;23.494;2024-03-25T01:19:08;53658.81;;;-139.68;100.00
10940;BME280;5522;42.696;23.494;2024-03-25T01:21:34;53604.53;;;-139.68;100.00
10940;BME280;5522;42.696;23.494;2024-03-25T01:24:01;53614.59;;;-139.68;100.00
10940;BME280;5522;42.696;23.494;2024-03-25T01:26:28;53642.72;;;-139.68;100.00
10940;BME280;5522;42.696;23.494;2024-03-25T01:28:55;53634.69;;;-139.68;100.00
10940;BME280;5522;42.696;23.494;2024-03-25T01:31:21;53620.63;;;-139.68;100.00
10940;BME280;5522;42.696;23.494;2024-03-25T01:33:47;53634.69;;;-139.68;100.00
10940;BME280;5522;42.696;23.494;2024-03-25T01:36:13;53642.72;;;-139.68;100.00
10940;BME280;5522;42.696;23.494;2024-03-25T01:38:42;53638.72;;;-139.68;100.00
10940;BME280;5522;42.696;23.494;2024-03-25T01:41:08;53618.63;;;-139.68;100.00
10940;BME280;5522;42.696;23.494;2024-03-25T01:43:37;53658.81;;;-139.68;100.00
10940;BME280;5522;42.696;23.494;2024-03-25T01:46:03;53654.78;;;-139.68;100.00
10940;BME280;5522;42.696;23.494;2024-03-25T01:48:31;53638.72;;;-139.68;100.00
10940;BME280;5522;42.696;23.494;2024-03-25T01:50:58;53624.63;;;-139.68;100.00
10940;BME280;5522;42.696;23.494;2024-03-25T01:53:25;53622.63;;;-139.68;100.00
10940;BME280;5522;42.696;23.494;2024-03-25T01:55:52;53656.81;;;-139.68;100.00
10940;BME280;5522;42.696;23.494;2024-03-25T01:58:22;53634.69;;;-139.68;100.00
10940;BME280;5522;42.696;23.494;2024-03-25T02:00:50;53646.75;;;-139.68;100.00
10940;BME280;5522;42.696;23.494;2024-03-25T02:03:18;53654.78;;;-139.68;100.00
10940;BME280;5522;42.696;23.494;2024-03-25T02:05:44;53646.75;;;-139.68;100.00
10940;BME280;5522;42.696;23.494;2024-03-25T02:08:11;53644.75;;;-139.68;100.00
10940;BME280;5522;42.696;23.494;2024-03-25T02:10:38;53622.63;;;-139.68;100.00
10940;BME280;5522;42.696;23.494;2024-03-25T02:13:05;53638.72;;;-139.68;100.00
10940;BME280;5522;42.696;23.494;2024-03-25T02:15:31;53662.84;;;-139.68;100.00
10940;BME280;5522;42.696;23.494;2024-03-25T02:17:59;53658.81;;;-139.68;100.00
10940;BME280;5522;42.696;23.494;2024-03-25T02:20:25;53642.72;;;-139.68;100.00
10940;BME280;5522;42.696;23.494;2024-03-25T02:22:51;53662.84;;;-139.68;100.00
10940;BME280;5522;42.696;23.494;2024-03-25T02:25:17;53660.81;;;-139.68;100.00
10940;BME280;5522;42.696;23.494;2024-03-25T02:27:46;53656.81;;;-139.68;100.00
10940;BME280;5522;42.696;23.494;2024-03-25T02:30:12;53644.75;;;-139.68;100.00
10940;BME280;5522;42.696;23.494;2024-03-25T02:32:39;53640.72;;;-139.68;100.00
10940;BME280;5522;42.696;23.494;2024-03-25T02:35:07;53650.78;;;-139.68;100.00
10940;BME280;5522;42.696;23.494;2024-03-25T02:37:35;53668.88;;;-139.68;100.00
10940;BME280;5522;42.696;23.494;2024-03-25T02:40:02;53610.56;;;-139.68;100.00
10940;BME280;5522;42.696;23.494;2024-03-25T02:42:31;53598.50;;;-139.68;100.00
10940;BME280;5522;42.696;23.494;2024-03-25T02:44:58;53666.84;;;-139.68;100.00
10940;BME280;5522;42.696;23.494;2024-03-25T02:47:26;53648.75;;;-139.68;100.00
10940;BME280;5522;42.696;23.494;2024-03-25T02:49:52;53656.81;;;-139.68;100.00
10940;BME280;5522;42.696;23.494;2024-03-25T02:52:19;53654.78;;;-139.68;100.00
10940;BME280;5522;42.696;23.494;2024-03-25T02:54:44;53646.75;;;-139.68;100.00
10940;BME280;5522;42.696;23.494;2024-03-25T02:57:11;53644.75;;;-139.68;100.00
10940;BME280;5522;42.696;23.494;2024-03-25T02:59:37;53610.56;;;-139.68;100.00
10940;BME280;5522;42.696;23.494;2024-03-25T03:02:05;53620.63;;;-139.68;100.00
10940;BME280;5522;42.696;23.494;2024-03-25T03:04:31;53634.69;;;-139.68;100.00
10940;BME280;5522;42.696;23.494;2024-03-25T03:06:58;53638.72;;;-139.68;100.00
10940;BME280;5522;42.696;23.494;2024-03-25T03:09:23;53618.63;;;-139.68;100.00
10940;BME280;5522;42.696;23.494;2024-03-25T03:11:50;53678.91;;;-139.68;100.00
10940;BME280;5522;42.696;23.494;2024-03-25T03:14:16;53642.72;;;-139.68;100.00
10940;BME280;5522;42.696;23.494;2024-03-25T03:16:43;53634.69;;;-139.68;100.00
10940;BME280;5522;42.696;23.494;2024-03-25T03:19:10;53634.69;;;-139.68;100.00
10940;BME280;5522;42.696;23.494;2024-03-25T03:21:37;53652.78;;;-139.68;100.00
10940;BME280;5522;42.696;23.494;2024-03-25T03:24:03;53656.81;;;-139.68;100.00
10940;BME280;5522;42.696;23.494;2024-03-25T03:26:30;53648.75;;;-139.68;100.00
10940;BME280;5522;42.696;23.494;2024-03-25T03:28:56;53614.59;;;-139.68;100.00
10940;BME280;5522;42.696;23.494;2024-03-25T03:31:24;53622.63;;;-139.68;100.00
10940;BME280;5522;42.696;23.494;2024-03-25T03:33:50;53630.66;;;-139.68;100.00
10940;BME280;5522;42.696;23.494;2024-03-25T03:36:20;53630.66;;;-139.68;100.00
10940;BME280;5522;42.696;23.494;2024-03-25T03:38:46;53654.78;;;-139.68;100.00
10940;BME280;5522;42.696;23.494;2024-03-25T03:41:13;53662.84;;;-139.68;100.00
10940;BME280;5522;42.696;23.494;2024-03-25T03:43:38;53614.59;;;-139.68;100.00
10940;BME280;5522;42.696;23.494;2024-03-25T03:46:05;53640.72;;;-139.68;100.00
10940;BME280;5522;42.696;23.494;2024-03-25T03:48:31;53596.50;;;-139.68;100.00
10940;BME280;5522;42.696;23.494;2024-03-25T03:50:58;53604.53;;;-139.68;100.00
10940;BME280;5522;42.696;23.494;2024-03-25T03:53:25;53642.72;;;-139.68;100.00
10940;BME280;5522;42.696;23.494;2024-03-25T03:55:55;53642.72;;;-139.68;100.00
10940;BME280;5522;42.696;23.494;2024-03-25T03:58:21;53658.81;;;-139.68;100.00
10940;BME280;5522;42.696;23.494;2024-03-25T04:00:48;53624.63;;;-139.68;100.00
10940;BME280;5522;42.696;23.494;2024-03-25T04:03:14;53682.94;;;-139.68;100.00
10940;BME280;5522;42.696;23.494;2024-03-25T04:05:41;53620.63;;;-139.68;100.00
10940;BME280;5522;42.696;23.494;2024-03-25T04:08:07;53614.59;;;-139.68;100.00
10940;BME280;5522;42.696;23.494;2024-03-25T04:10:36;53654.78;;;-139.68;100.00
10940;BME280;5522;42.696;23.494;2024-03-25T04:13:02;53650.78;;;-139.68;100.00
10940;BME280;5522;42.696;23.494;2024-03-25T04:15:32;53624.63;;;-139.68;100.00
10940;BME280;5522;42.696;23.494;2024-03-25T04:17:58;53618.63;;;-139.68;100.00
10940;BME280;5522;42.696;23.494;2024-03-25T04:20:28;53620.63;;;-139.68;100.00
10940;BME280;5522;42.696;23.494;2024-03-25T04:22:54;53650.78;;;-139.68;100.00
10940;BME280;5522;42.696;23.494;2024-03-25T04:25:21;53616.59;;;-139.68;100.00
10940;BME280;5522;42.696;23.494;2024-03-25T04:27:49;53610.56;;;-139.68;100.00
10940;BME280;5522;42.696;23.494;2024-03-25T04:30:15;53634.69;;;-139.68;100.00
10940;BME280;5522;42.696;23.494;2024-03-25T04:32:42;53668.88;;;-139.68;100.00
10940;BME280;5522;42.696;23.494;2024-03-25T04:35:08;53654.78;;;-139.68;100.00
10940;BME280;5522;42.696;23.494;2024-03-25T04:37:35;53652.78;;;-139.68;100.00
10940;BME280;5522;42.696;23.494;2024-03-25T04:40:01;53632.69;;;-139.68;100.00
10940;BME280;5522;42.696;23.494;2024-03-25T04:42:27;53642.72;;;-139.68;100.00
10940;BME280;5522;42.696;23.494;2024-03-25T04:44:54;53634.69;;;-139.68;100.00
10940;BME280;5522;42.696;23.494;2024-03-25T04:47:20;53650.78;;;-139.68;100.00
10940;BME280;5522;42.696;23.494;2024-03-25T04:49:46;53634.69;;;-139.68;100.00
10940;BME280;5522;42.696;23.494;2024-03-25T04:52:12;53652.78;;;-139.68;100.00
10940;BME280;5522;42.696;23.494;2024-03-25T04:54:38;53654.78;;;-139.68;100.00
10940;BME280;5522;42.696;23.494;2024-03-25T04:57:04;53618.63;;;-139.68;100.00
10940;BME280;5522;42.696;23.494;2024-03-25T04:59:30;53618.63;;;-139.68;100.00
10940;BME280;5522;42.696;23.494;2024-03-25T05:01:58;53660.81;;;-139.68;100.00
10940;BME280;5522;42.696;23.494;2024-03-25T05:04:23;53682.94;;;-139.68;100.00
10940;BME280;5522;42.696;23.494;2024-03-25T05:06:49;53648.75;;;-139.68;100.00
10940;BME280;5522;42.696;23.494;2024-03-25T05:09:15;53622.63;;;-139.68;100.00
10940;BME280;5522;42.696;23.494;2024-03-25T05:11:41;53642.72;;;-139.68;100.00
10940;BME280;5522;42.696;23.494;2024-03-25T05:14:07;53666.84;;;-139.68;100.00
10940;BME280;5522;42.696;23.494;2024-03-25T05:16:33;53654.78;;;-139.68;100.00
10940;BME280;5522;42.696;23.494;2024-03-25T05:19:00;53638.72;;;-139.68;100.00
10940;BME280;5522;42.696;23.494;2024-03-25T05:21:26;53634.69;;;-139.68;100.00
10940;BME280;5522;42.696;23.494;2024-03-25T05:23:52;53648.75;;;-139.68;100.00
10940;BME280;5522;42.696;23.494;2024-03-25T05:26:18;53628.66;;;-139.68;100.00
10940;BME280;5522;42.696;23.494;2024-03-25T05:28:44;53632.69;;;-139.68;100.00
10940;BME280;5522;42.696;23.494;2024-03-25T05:31:10;53658.81;;;-139.68;100.00
10940;BME280;5522;42.696;23.494;2024-03-25T05:33:36;53660.81;;;-139.68;100.00
10940;BME280;5522;42.696;23.494;2024-03-25T05:36:03;53678.91;;;-139.68;100.00
10940;BME280;5522;42.696;23.494;2024-03-25T05:38:29;53646.75;;;-139.68;100.00
10940;BME280;5522;42.696;23.494;2024-03-25T05:40:55;53642.72;;;-139.68;100.00
10940;BME280;5522;42.696;23.494;2024-03-25T05:43:21;53682.94;;;-139.68;100.00
10940;BME280;5522;42.696;23.494;2024-03-25T05:45:50;53642.72;;;-139.68;100.00
10940;BME280;5522;42.696;23.494;2024-03-25T05:48:16;53626.66;;;-139.68;100.00
10940;BME280;5522;42.696;23.494;2024-03-25T05:50:42;53660.81;;;-139.68;100.00
10940;BME280;5522;42.696;23.494;2024-03-25T05:53:10;53662.84;;;-139.68;100.00
10940;BME280;5522;42.696;23.494;2024-03-25T05:55:36;53693.00;;;-139.68;100.00
10940;BME280;5522;42.696;23.494;2024-03-25T05:58:01;53644.75;;;-139.68;100.00
10940;BME280;5522;42.696;23.494;2024-03-25T06:00:28;53670.88;;;-139.68;100.00
10940;BME280;5522;42.696;23.494;2024-03-25T06:02:54;53658.81;;;-139.68;100.00
10940;BME280;5522;42.696;23.494;2024-03-25T06:05:20;53652.78;;;-139.68;100.00
10940;BME280;5522;42.696;23.494;2024-03-25T06:07:45;53662.84;;;-139.68;100.00
10940;BME280;5522;42.696;23.494;2024-03-25T06:10:13;53674.91;;;-139.68;100.00
10940;BME280;5522;42.696;23.494;2024-03-25T06:12:39;53695.00;;;-139.68;100.00
10940;BME280;5522;42.696;23.494;2024-03-25T06:15:06;53686.97;;;-139.68;100.00
10940;BME280;5522;42.696;23.494;2024-03-25T06:17:32;53656.81;;;-139.68;100.00
10940;BME280;5522;42.696;23.494;2024-03-25T06:19:58;53674.91;;;-139.68;100.00
10940;BME280;5522;42.696;23.494;2024-03-25T06:22:24;53695.00;;;-139.68;100.00
10940;BME280;5522;42.696;23.494;2024-03-25T06:24:49;53697.00;;;-139.68;100.00
10940;BME280;5522;42.696;23.494;2024-03-25T06:27:17;53690.97;;;-139.68;93.08
10940;BME280;5522;42.696;23.494;2024-03-25T06:29:42;53723.13;;;-139.68;87.08
10940;BME280;5522;42.696;23.494;2024-03-25T06:32:08;53711.09;;;-139.68;85.93
10940;BME280;5522;42.696;23.494;2024-03-25T06:34:53;53731.19;;;-139.68;86.55
10940;BME280;5522;42.696;23.494;2024-03-25T06:37:18;53719.13;;;-139.68;83.15
10940;BME280;5522;42.696;23.494;2024-03-25T06:39:44;53723.13;;;-139.68;85.54
10940;BME280;5522;42.696;23.494;2024-03-25T06:42:10;53731.19;;;-139.68;62.79
10940;BME280;5522;42.696;23.494;2024-03-25T06:44:37;53711.09;;;-139.68;57.40
10940;BME280;5522;42.696;23.494;2024-03-25T06:47:03;53757.31;;;-139.68;52.33
10940;BME280;5522;42.696;23.494;2024-03-25T06:49:29;53785.47;;;-139.68;47.77
10940;BME280;5522;42.696;23.494;2024-03-25T06:51:55;53727.16;;;-139.68;49.09
10940;BME280;5522;42.696;23.494;2024-03-25T06:54:21;53743.25;;;-139.68;54.27
10940;BME280;5522;42.696;23.494;2024-03-25T06:56:47;53699.03;;;-139.68;56.06
10940;BME280;5522;42.696;23.494;2024-03-25T06:59:12;53707.06;;;-139.68;65.36
10940;BME280;5522;42.696;23.494;2024-03-25T07:01:40;53715.09;;;-139.68;73.55
10940;BME280;5522;42.696;23.494;2024-03-25T07:04:05;53731.19;;;-139.68;74.92
10940;BME280;5522;42.696;23.494;2024-03-25T07:06:31;53729.16;;;-139.68;66.43
10940;BME280;5522;42.696;23.494;2024-03-25T07:08:57;53737.22;;;-139.68;51.83
10940;BME280;5522;42.696;23.494;2024-03-25T07:11:23;53747.25;;;-139.68;46.57
10940;BME280;5522;42.696;23.494;2024-03-25T07:13:49;53791.50;;;-139.68;45.43
10940;BME280;5522;42.696;23.494;2024-03-25T07:16:14;53721.13;;;-139.68;43.76
10940;BME280;5522;42.696;23.494;2024-03-25T07:18:42;53727.16;;;-139.68;45.46
10940;BME280;5522;42.696;23.494;2024-03-25T07:21:08;53779.44;;;-139.68;45.56
10940;BME280;5522;42.696;23.494;2024-03-25T07:23:33;53755.31;;;-139.68;48.12
10940;BME280;5522;42.696;23.494;2024-03-25T07:25:59;53727.16;;;-139.68;48.90
10940;BME280;5522;42.696;23.494;2024-03-25T07:28:25;53721.13;;;-139.68;50.52
10940;BME280;5522;42.696;23.494;2024-03-25T07:30:51;53727.16;;;-139.68;51.10
10940;BME280;5522;42.696;23.494;2024-03-25T07:33:16;53735.19;;;-139.68;47.66
10940;BME280;5522;42.696;23.494;2024-03-25T07:35:44;53763.34;;;-139.68;43.53
10940;BME280;5522;42.696;23.494;2024-03-25T07:38:10;53781.44;;;-139.68;39.44
10940;BME280;5522;42.696;23.494;2024-03-25T07:40:36;53761.34;;;-139.68;38.15
10940;BME280;5522;42.696;23.494;2024-03-25T07:43:02;53799.53;;;-139.68;35.36
10940;BME280;5522;42.696;23.494;2024-03-25T07:45:28;53801.53;;;-139.68;35.03
10940;BME280;5522;42.696;23.494;2024-03-25T07:47:53;53789.47;;;-139.68;33.58
10940;BME280;5522;42.696;23.494;2024-03-25T07:50:19;53803.56;;;-139.68;34.03
10940;BME280;5522;42.696;23.494;2024-03-25T07:52:47;53785.47;;;-139.68;34.67
10940;BME280;5522;42.696;23.494;2024-03-25T07:55:12;53785.47;;;-139.68;34.40
10940;BME280;5522;42.696;23.494;2024-03-25T07:57:38;53823.66;;;-139.68;33.06
10940;BME280;5522;42.696;23.494;2024-03-25T08:00:06;53827.69;;;-139.68;32.24
10940;BME280;5522;42.696;23.494;2024-03-25T08:02:32;53795.50;;;-139.68;32.11
10940;BME280;5522;42.696;23.494;2024-03-25T08:04:58;53799.53;;;-139.68;30.89
10940;BME280;5522;42.696;23.494;2024-03-25T08:07:23;53819.63;;;-139.68;32.06
10940;BME280;5522;42.696;23.494;2024-03-25T08:09:51;53847.78;;;-139.68;33.56
10940;BME280;5522;42.696;23.494;2024-03-25T08:12:16;53783.44;;;-139.68;35.00
10940;BME280;5522;42.696;23.494;2024-03-25T08:14:42;53845.78;;;-139.68;36.92
10940;BME280;5522;42.696;23.494;2024-03-25T08:17:08;53799.53;;;-139.68;39.09
10940;BME280;5522;42.696;23.494;2024-03-25T08:19:34;53829.69;;;-139.68;36.11
10940;BME280;5522;42.696;23.494;2024-03-25T08:22:00;53847.78;;;-139.68;36.42
10940;BME280;5522;42.696;23.494;2024-03-25T08:24:26;53815.63;;;-139.68;37.20
10940;BME280;5522;42.696;23.494;2024-03-25T08:26:53;53791.50;;;-139.68;37.62
10940;BME280;5522;42.696;23.494;2024-03-25T08:29:19;53835.72;;;-139.68;38.64
10940;BME280;5522;42.696;23.494;2024-03-25T08:31:45;53801.53;;;-139.68;38.47
10940;BME280;5522;42.696;23.494;2024-03-25T08:34:10;53825.66;;;-139.68;34.22
10940;BME280;5522;42.696;23.494;2024-03-25T08:36:36;53845.78;;;-139.68;35.95
10940;BME280;5522;42.696;23.494;2024-03-25T08:39:02;53835.72;;;-139.68;34.97
10940;BME280;5522;42.696;23.494;2024-03-25T08:41:28;53825.66;;;-139.68;37.45
10940;BME280;5522;42.696;23.494;2024-03-25T08:43:55;53811.59;;;-139.68;40.06
10940;BME280;5522;42.696;23.494;2024-03-25T08:46:21;53823.66;;;-139.68;41.12
10940;BME280;5522;42.696;23.494;2024-03-25T08:48:46;53791.50;;;-139.68;43.98
10940;BME280;5522;42.696;23.494;2024-03-25T08:51:12;53803.56;;;-139.68;46.28
10940;BME280;5522;42.696;23.494;2024-03-25T08:53:38;53795.50;;;-139.68;49.87
10940;BME280;5522;42.696;23.494;2024-03-25T08:56:04;53767.38;;;-139.68;50.89
10940;BME280;5522;42.696;23.494;2024-03-25T08:58:30;53809.59;;;-139.68;53.42
10940;BME280;5522;42.696;23.494;2024-03-25T09:00:57;53823.66;;;-139.68;49.87
10940;BME280;5522;42.696;23.494;2024-03-25T09:03:23;53775.41;;;-139.68;47.31
10940;BME280;5522;42.696;23.494;2024-03-25T09:05:49;53823.66;;;-139.68;45.89
10940;BME280;5522;42.696;23.494;2024-03-25T09:08:14;53793.50;;;-139.68;47.50
10940;BME280;5522;42.696;23.494;2024-03-25T09:10:43;53819.63;;;-139.68;48.36
10940;BME280;5522;42.696;23.494;2024-03-25T09:13:27;53789.47;;;-139.68;43.57
10940;BME280;5522;42.696;23.494;2024-03-25T09:15:53;53837.72;;;-139.68;42.93
10940;BME280;5522;42.696;23.494;2024-03-25T09:18:20;53817.63;;;-139.68;40.00
10940;BME280;5522;42.696;23.494;2024-03-25T09:20:46;53823.66;;;-139.68;38.99
10940;BME280;5522;42.696;23.494;2024-03-25T09:23:12;53849.78;;;-139.68;39.40
10940;BME280;5522;42.696;23.494;2024-03-25T09:25:38;53823.66;;;-139.68;39.00
10940;BME280;5522;42.696;23.494;2024-03-25T09:28:04;53809.59;;;-139.68;40.61
10940;BME280;5522;42.696;23.494;2024-03-25T09:30:30;53837.72;;;-139.68;39.77
10940;BME280;5522;42.696;23.494;2024-03-25T09:32:55;53797.53;;;-139.68;39.74
10940;BME280;5522;42.696;23.494;2024-03-25T09:35:23;53833.72;;;-139.68;40.43
10940;BME280;5522;42.696;23.494;2024-03-25T09:37:48;53817.63;;;-139.68;44.77
10940;BME280;5522;42.696;23.494;2024-03-25T09:40:14;53827.69;;;-139.68;47.14
10940;BME280;5522;42.696;23.494;2024-03-25T09:42:45;53791.50;;;-139.68;43.14
10940;BME280;5522;42.696;23.494;2024-03-25T09:45:13;53815.63;;;-139.68;40.13
10940;BME280;5522;42.696;23.494;2024-03-25T09:47:46;53841.75;;;-139.68;38.46
10940;BME280;5522;42.696;23.494;2024-03-25T09:50:13;53847.78;;;-139.68;34.03
10940;BME280;5522;42.696;23.494;2024-03-25T09:52:40;53827.69;;;-139.68;32.42
10940;BME280;5522;42.696;23.494;2024-03-25T09:55:06;53813.59;;;-139.68;32.42
10940;BME280;5522;42.696;23.494;2024-03-25T09:57:33;53859.84;;;-139.68;34.70
10940;BME280;5522;42.696;23.494;2024-03-25T10:00:00;53813.59;;;-139.68;35.32
10940;BME280;5522;42.696;23.494;2024-03-25T10:02:28;53827.69;;;-139.68;34.55
10940;BME280;5522;42.696;23.494;2024-03-25T10:04:55;53781.44;;;-139.68;35.61
10940;BME280;5522;42.696;23.494;2024-03-25T10:07:25;53811.59;;;-139.68;36.16
10940;BME280;5522;42.696;23.494;2024-03-25T10:09:52;53811.59;;;-139.68;37.39
10940;BME280;5522;42.696;23.494;2024-03-25T10:12:18;53831.69;;;-139.68;37.79
10940;BME280;5522;42.696;23.494;2024-03-25T10:14:44;53831.69;;;-139.68;37.33
10940;BME280;5522;42.696;23.494;2024-03-25T10:17:10;53835.72;;;-139.68;35.01
10940;BME280;5522;42.696;23.494;2024-03-25T10:19:36;53799.53;;;-139.68;31.93
10940;BME280;5522;42.696;23.494;2024-03-25T10:22:06;53847.78;;;-139.68;33.49
10940;BME280;5522;42.696;23.494;2024-03-25T10:24:39;53825.66;;;-139.68;35.03
10940;BME280;5522;42.696;23.494;2024-03-25T10:27:10;53815.63;;;-139.68;35.46
10940;BME280;5522;42.696;23.494;2024-03-25T10:29:36;53775.41;;;-139.68;37.44
10940;BME280;5522;42.696;23.494;2024-03-25T10:32:02;53795.50;;;-139.68;39.83
10940;BME280;5522;42.696;23.494;2024-03-25T10:34:28;53775.41;;;-139.68;41.28
10940;BME280;5522;42.696;23.494;2024-03-25T10:36:57;53823.66;;;-139.68;45.26
10940;BME280;5522;42.696;23.494;2024-03-25T10:39:26;53759.31;;;-139.68;46.17
10940;BME280;5522;42.696;23.494;2024-03-25T10:41:55;53763.34;;;-139.68;48.77
10940;BME280;5522;42.696;23.494;2024-03-25T10:44:23;53775.41;;;-139.68;54.22
10940;BME280;5522;42.696;23.494;2024-03-25T10:46:53;53791.50;;;-139.68;64.48
10940;BME280;5522;42.696;23.494;2024-03-25T10:49:27;53817.63;;;-139.68;53.31
10940;BME280;5522;42.696;23.494;2024-03-25T10:51:59;53771.38;;;-139.68;50.30
10940;BME280;5522;42.696;23.494;2024-03-25T10:54:26;53821.66;;;-139.68;49.19
10940;BME280;5522;42.696;23.494;2024-03-25T10:56:52;53783.44;;;-139.68;50.39
10940;BME280;5522;42.696;23.494;2024-03-25T10:59:20;53813.59;;;-139.68;51.75
10940;BME280;5522;42.696;23.494;2024-03-25T11:01:48;53775.41;;;-139.68;53.14
10940;BME280;5522;42.696;23.494;2024-03-25T11:04:15;53789.47;;;-139.68;47.39
10940;BME280;5522;42.696;23.494;2024-03-25T11:06:41;53801.53;;;-139.68;49.06
10940;BME280;5522;42.696;23.494;2024-03-25T11:09:06;53811.59;;;-139.68;43.30
10940;BME280;5522;42.696;23.494;2024-03-25T11:11:33;53827.69;;;-139.68;42.55
10940;BME280;5522;42.696;23.494;2024-03-25T11:14:02;53779.44;;;-139.68;41.36
10940;BME280;5522;42.696;23.494;2024-03-25T11:16:29;53799.53;;;-139.68;42.68
10940;BME280;5522;42.696;23.494;2024-03-25T11:19:00;53811.59;;;-139.68;39.96
10940;BME280;5522;42.696;23.494;2024-03-25T11:21:27;53815.63;;;-139.68;39.84
10940;BME280;5522;42.696;23.494;2024-03-25T11:23:53;53807.56;;;-139.68;40.48
10940;BME280;5522;42.696;23.494;2024-03-25T11:26:24;53809.59;;;-139.68;39.16
10940;BME280;5522;42.696;23.494;2024-03-25T11:28:52;53791.50;;;-139.68;40.16
10940;BME280;5522;42.696;23.494;2024-03-25T11:31:20;53775.41;;;-139.68;40.56
10940;BME280;5522;42.696;23.494;2024-03-25T11:33:47;53803.56;;;-139.68;39.42
10940;BME280;5522;42.696;23.494;2024-03-25T11:36:14;53823.66;;;-139.68;41.92
10940;BME280;5522;42.696;23.494;2024-03-25T11:38:40;53799.53;;;-139.68;56.00
10940;BME280;5522;42.696;23.494;2024-03-25T11:41:06;53717.13;;;-139.68;74.25
10940;BME280;5522;42.696;23.494;2024-03-25T11:43:32;53795.50;;;-139.68;87.81
10940;BME280;5522;42.696;23.494;2024-03-25T11:45:58;53771.38;;;-139.68;94.07
10940;BME280;5522;42.696;23.494;2024-03-25T11:48:24;53767.38;;;-139.68;89.88
10940;BME280;5522;42.696;23.494;2024-03-25T11:50:50;53755.31;;;-139.68;88.74
10940;BME280;5522;42.696;23.494;2024-03-25T11:53:20;53789.47;;;-139.68;88.70
10940;BME280;5522;42.696;23.494;2024-03-25T11:55:46;53775.41;;;-139.68;84.54
10940;BME280;5522;42.696;23.494;2024-03-25T11:58:12;53763.34;;;-139.68;84.00
10940;BME280;5522;42.696;23.494;2024-03-25T12:00:43;53765.34;;;-139.68;68.93
10940;BME280;5522;42.696;23.494;2024-03-25T12:03:09;53783.44;;;-139.68;60.72
10940;BME280;5522;42.696;23.494;2024-03-25T12:05:34;53739.22;;;-139.68;67.28
10940;BME280;5522;42.696;23.494;2024-03-25T12:08:04;53799.53;;;-139.68;64.33
10940;BME280;5522;42.696;23.494;2024-03-25T12:10:32;53773.41;;;-139.68;56.27
10940;BME280;5522;42.696;23.494;2024-03-25T12:13:16;53751.28;;;-139.68;57.03
10940;BME280;5522;42.696;23.494;2024-03-25T12:15:42;53753.28;;;-139.68;57.38
10940;BME280;5522;42.696;23.494;2024-03-25T12:18:08;53779.44;;;-139.68;53.60
10940;BME280;5522;42.696;23.494;2024-03-25T12:20:35;53831.69;;;-139.68;51.70
10940;BME280;5522;42.696;23.494;2024-03-25T12:23:01;53781.44;;;-139.68;51.50
10940;BME280;5522;42.696;23.494;2024-03-25T12:25:27;53753.28;;;-139.68;50.38
10940;BME280;5522;42.696;23.494;2024-03-25T12:27:54;53821.66;;;-139.68;49.89
10940;BME280;5522;42.696;23.494;2024-03-25T12:30:20;53811.59;;;-139.68;53.32
10940;BME280;5522;42.696;23.494;2024-03-25T12:32:46;53773.41;;;-139.68;53.17
10940;BME280;5522;42.696;23.494;2024-03-25T12:35:13;53811.59;;;-139.68;55.09
10940;BME280;5522;42.696;23.494;2024-03-25T12:37:40;53777.41;;;-139.68;53.53